Time;durP1;ratioP1;P1;durP2;ratioP2;P2;SDS_P1;SDS_P2;PMS_P1;PMS_P2;Temp;Humidity;BMP_temperature;BMP_pressure;BME280_temperature;BME280_humidity;BME280_pressure;Samples;Min_cycle;Max_cycle;Signal;HPM_P1;HPM_P2
2023/01/23 00:01:48;;;;;;;0.17;0.17;;;1.30;99.90;;;;;;5012208;28;20197;-68
2023/01/23 00:04:14;;;;;;;0.05;0.05;;;1.30;99.90;;;;;;5012515;28;20205;-69
2023/01/23 00:06:41;;;;;;;0.00;0.00;;;1.30;99.90;;;;;;5012259;28;20191;-69
2023/01/23 00:09:07;;;;;;;0.00;0.00;;;1.30;99.90;;;;;;5012373;28;20206;-69
2023/01/23 00:11:33;;;;;;;0.00;0.00;;;1.30;99.90;;;;;;5012486;28;20191;-69
2023/01/23 00:14:00;;;;;;;0.10;0.10;;;1.30;99.90;;;;;;5012061;28;20290;-68
2023/01/23 00:16:28;;;;;;;0.00;0.00;;;1.30;99.90;;;;;;5012026;28;20321;-69
2023/01/23 00:18:54;;;;;;;0.10;0.10;;;1.30;99.90;;;;;;5012109;28;20186;-69
2023/01/23 00:21:22;;;;;;;0.00;0.00;;;1.30;99.90;;;;;;5012146;28;20653;-68
2023/01/23 00:23:52;;;;;;;0.00;0.00;;;1.30;99.90;;;;;;5012129;28;20187;-69
2023/01/23 00:26:20;;;;;;;0.03;0.03;;;1.30;99.90;;;;;;5001442;28;20281;-69
2023/01/23 00:28:46;;;;;;;0.10;0.10;;;1.30;99.90;;;;;;5011639;28;20261;-68
2023/01/23 00:31:24;;;;;;;0.00;0.00;;;1.30;99.90;;;;;;4994128;28;20298;-69
2023/01/23 00:33:53;;;;;;;0.00;0.00;;;1.30;99.90;;;;;;5001926;28;20179;-68
2023/01/23 00:36:19;;;;;;;0.10;0.10;;;1.30;99.90;;;;;;5011433;28;20697;-69
2023/01/23 00:38:44;;;;;;;0.15;0.15;;;1.30;99.90;;;;;;5011667;28;20185;-69
2023/01/23 00:41:11;;;;;;;0.00;0.00;;;1.30;99.90;;;;;;5011396;28;20182;-69
2023/01/23 00:43:37;;;;;;;0.00;0.00;;;1.30;99.90;;;;;;5012397;28;20167;-69
2023/01/23 00:46:03;;;;;;;0.00;0.00;;;1.30;99.90;;;;;;5011828;28;20630;-69
2023/01/23 00:48:28;;;;;;;0.10;0.10;;;1.40;99.90;;;;;;5012089;28;20205;-69
2023/01/23 00:50:54;;;;;;;0.05;0.05;;;1.40;99.90;;;;;;5012033;28;20178;-68
2023/01/23 00:53:19;;;;;;;0.00;0.00;;;1.40;99.90;;;;;;5011891;28;20333;-68
2023/01/23 00:55:45;;;;;;;0.00;0.00;;;1.40;99.90;;;;;;5011527;28;20222;-68
2023/01/23 00:58:11;;;;;;;0.08;0.08;;;1.40;99.90;;;;;;4994099;28;20565;-68
2023/01/23 01:00:37;;;;;;;0.00;0.00;;;1.40;99.90;;;;;;5011752;28;20198;-68
2023/01/23 01:03:04;;;;;;;0.10;0.10;;;1.40;99.90;;;;;;5011416;28;20171;-68
2023/01/23 01:05:30;;;;;;;0.00;0.00;;;1.40;99.90;;;;;;5014250;28;20186;-68
2023/01/23 01:07:55;;;;;;;0.00;0.00;;;1.40;99.90;;;;;;5015270;28;20186;-67
2023/01/23 01:10:21;;;;;;;0.15;0.15;;;1.40;99.90;;;;;;5015341;28;20642;-68
2023/01/23 01:12:47;;;;;;;0.32;0.32;;;1.50;99.90;;;;;;4997403;28;20270;-71
2023/01/23 01:15:13;;;;;;;0.00;0.00;;;1.60;99.90;;;;;;5015468;28;20214;-71
2023/01/23 01:17:38;;;;;;;0.00;0.00;;;1.70;99.90;;;;;;5015574;28;20190;-72
2023/01/23 01:20:05;;;;;;;0.10;0.10;;;1.70;99.90;;;;;;5015466;28;20178;-71
2023/01/23 01:22:31;;;;;;;0.00;0.00;;;1.70;99.90;;;;;;5015349;28;20194;-71
2023/01/23 01:24:56;;;;;;;0.00;0.00;;;1.60;99.90;;;;;;5014961;28;20634;-72
2023/01/23 01:27:22;;;;;;;0.00;0.00;;;1.70;99.90;;;;;;5015368;28;20183;-72
2023/01/23 01:29:48;;;;;;;0.08;0.08;;;1.60;99.90;;;;;;5015102;28;20713;-72
2023/01/23 01:32:14;;;;;;;0.00;0.00;;;1.60;99.90;;;;;;5015381;28;20257;-71
2023/01/23 01:34:39;;;;;;;0.00;0.00;;;1.60;99.90;;;;;;5015131;28;20557;-68
2023/01/23 01:37:05;;;;;;;0.05;0.05;;;1.60;99.90;;;;;;5014794;28;20755;-69
2023/01/23 01:39:31;;;;;;;0.17;0.17;;;1.60;99.90;;;;;;5014969;28;20270;-68
2023/01/23 01:41:56;;;;;;;0.00;0.00;;;1.60;99.90;;;;;;5014958;28;20210;-67
2023/01/23 01:44:23;;;;;;;0.00;0.00;;;1.60;99.90;;;;;;5014467;28;20187;-68
2023/01/23 01:46:50;;;;;;;0.00;0.00;;;1.60;99.90;;;;;;5014813;28;20187;-67
2023/01/23 01:49:31;;;;;;;0.03;0.03;;;1.60;99.90;;;;;;5014001;28;20705;-69
2023/01/23 01:52:07;;;;;;;0.00;0.00;;;1.60;99.90;;;;;;5014531;28;20580;-68
2023/01/23 01:54:41;;;;;;;0.00;0.00;;;1.50;99.90;;;;;;5014838;28;20186;-68
2023/01/23 01:57:39;;;;;;;0.20;0.20;;;1.50;99.90;;;;;;5014485;28;20250;-69
2023/01/23 02:00:11;;;;;;;0.00;0.00;;;1.50;99.90;;;;;;4993910;28;20253;-69
2023/01/23 02:02:54;;;;;;;0.00;0.00;;;1.50;99.90;;;;;;5002328;28;20234;-68
2023/01/23 02:05:27;;;;;;;0.00;0.00;;;1.50;99.90;;;;;;5014112;28;20229;-69
2023/01/23 02:07:58;;;;;;;0.00;0.00;;;1.50;99.90;;;;;;5014008;28;20645;-68
2023/01/23 02:10:24;;;;;;;0.00;0.00;;;1.50;99.90;;;;;;5013908;28;20183;-69
2023/01/23 02:12:51;;;;;;;0.00;0.00;;;1.50;99.90;;;;;;5013898;28;20185;-70
2023/01/23 02:15:18;;;;;;;1.45;0.75;;;1.50;99.90;;;;;;5013418;28;20210;-71
2023/01/23 02:17:45;;;;;;;0.00;0.00;;;1.50;99.90;;;;;;4995771;28;20193;-70
2023/01/23 02:20:11;;;;;;;0.40;0.40;;;1.50;99.90;;;;;;5013455;28;20202;-70
2023/01/23 02:22:52;;;;;;;0.00;0.00;;;1.50;99.90;;;;;;5013934;28;20213;-71
2023/01/23 02:25:18;;;;;;;0.00;0.00;;;1.50;99.90;;;;;;5013783;28;20185;-71
2023/01/23 02:27:43;;;;;;;0.00;0.00;;;1.50;99.90;;;;;;5013771;28;20179;-70
2023/01/23 02:30:09;;;;;;;0.00;0.00;;;1.50;99.90;;;;;;5012987;28;20179;-70
2023/01/23 02:32:35;;;;;;;0.10;0.10;;;1.50;99.90;;;;;;5013436;28;20183;-72
2023/01/23 02:35:07;;;;;;;0.00;0.00;;;1.50;99.90;;;;;;5013925;28;20193;-72
2023/01/23 02:37:34;;;;;;;0.00;0.00;;;1.50;99.90;;;;;;5013820;28;20187;-72
2023/01/23 02:40:02;;;;;;;0.00;0.00;;;1.50;99.90;;;;;;5013496;28;20217;-72
2023/01/23 02:42:29;;;;;;;0.00;0.00;;;1.50;99.90;;;;;;5014238;28;20190;-72
2023/01/23 02:44:56;;;;;;;0.00;0.00;;;1.50;99.90;;;;;;4995851;28;20207;-72
2023/01/23 02:47:23;;;;;;;0.00;0.00;;;1.50;99.90;;;;;;5013508;28;20191;-71
2023/01/23 02:49:48;;;;;;;0.00;0.00;;;1.50;99.90;;;;;;5013076;28;20179;-71
2023/01/23 02:52:14;;;;;;;0.00;0.00;;;1.50;99.90;;;;;;5013175;28;20202;-71
2023/01/23 02:54:40;;;;;;;0.00;0.00;;;1.50;99.90;;;;;;5013548;28;20614;-71
2023/01/23 02:57:05;;;;;;;0.00;0.00;;;1.40;99.90;;;;;;5013029;28;20223;-72
2023/01/23 03:02:16;;;;;;;0.00;0.00;;;1.40;99.90;;;;;;5013000;28;20206;-70
2023/01/23 03:04:41;;;;;;;0.00;0.00;;;1.40;99.90;;;;;;5011687;28;20191;-71
2023/01/23 03:07:07;;;;;;;0.00;0.00;;;1.40;99.90;;;;;;4995636;28;20182;-71
2023/01/23 03:09:32;;;;;;;0.00;0.00;;;1.40;99.90;;;;;;5013056;28;20210;-71
2023/01/23 03:11:59;;;;;;;0.00;0.00;;;1.40;99.90;;;;;;5013091;28;20232;-71
2023/01/23 03:14:25;;;;;;;0.00;0.00;;;1.40;99.90;;;;;;5013558;28;20654;-71
2023/01/23 03:16:52;;;;;;;0.03;0.03;;;1.40;99.90;;;;;;4999373;28;20326;-71
2023/01/23 03:19:21;;;;;;;0.00;0.00;;;1.40;99.90;;;;;;4993859;28;20666;-71
2023/01/23 03:21:48;;;;;;;0.00;0.00;;;1.40;99.90;;;;;;5001744;28;20179;-70
2023/01/23 03:24:14;;;;;;;0.00;0.00;;;1.40;99.90;;;;;;5013222;28;20171;-70
2023/01/23 03:26:44;;;;;;;0.00;0.00;;;1.40;99.90;;;;;;5013145;28;20167;-69
2023/01/23 03:32:02;;;;;;;0.25;0.25;;;1.40;99.90;;;;;;5012965;28;20261;-70
2023/01/23 03:34:28;;;;;;;0.63;0.63;;;1.40;99.90;;;;;;5012680;28;20171;-70
2023/01/23 03:36:54;;;;;;;0.10;0.10;;;1.40;99.90;;;;;;5012516;28;20673;-70
2023/01/23 03:42:04;;;;;;;0.00;0.00;;;1.40;99.90;;;;;;4995943;28;20201;-69
2023/01/23 03:44:29;;;;;;;0.13;0.13;;;1.40;99.90;;;;;;5008126;28;20187;-70
2023/01/23 03:46:55;;;;;;;0.00;0.00;;;1.40;99.90;;;;;;5012803;28;20194;-70
2023/01/23 03:49:21;;;;;;;0.00;0.00;;;1.40;99.90;;;;;;5012626;28;20179;-69
2023/01/23 03:51:46;;;;;;;0.00;0.00;;;1.40;99.90;;;;;;5012324;28;20265;-69
2023/01/23 03:54:13;;;;;;;0.00;0.00;;;1.40;99.90;;;;;;4994736;28;20221;-70
2023/01/23 03:56:39;;;;;;;0.03;0.03;;;1.40;99.90;;;;;;5012679;28;20226;-68
2023/01/23 03:59:05;;;;;;;0.00;0.00;;;1.40;99.90;;;;;;5011999;28;20175;-70
2023/01/23 04:01:31;;;;;;;0.00;0.00;;;1.40;99.90;;;;;;5012353;28;20203;-70
2023/01/23 04:03:57;;;;;;;0.00;0.00;;;1.40;99.90;;;;;;5011761;28;20522;-70
2023/01/23 04:06:22;;;;;;;0.00;0.00;;;1.40;99.90;;;;;;5011860;28;20195;-70
2023/01/23 04:08:48;;;;;;;0.38;0.38;;;1.40;99.90;;;;;;5012113;28;20179;-70
2023/01/23 04:11:14;;;;;;;0.00;0.00;;;1.40;99.90;;;;;;5012591;28;20190;-71
2023/01/23 04:13:40;;;;;;;0.00;0.00;;;1.40;99.90;;;;;;5012541;28;20277;-69
2023/01/23 04:16:06;;;;;;;0.00;0.00;;;1.40;99.90;;;;;;4994397;28;20281;-71
2023/01/23 04:18:32;;;;;;;0.00;0.00;;;1.30;99.90;;;;;;5012424;28;20191;-70
2023/01/23 04:20:58;;;;;;;0.73;0.23;;;1.30;99.90;;;;;;5012084;28;20385;-70
2023/01/23 04:23:25;;;;;;;0.00;0.00;;;1.30;99.90;;;;;;5012051;28;20191;-71
2023/01/23 04:25:51;;;;;;;0.00;0.00;;;1.30;99.90;;;;;;5012253;28;20664;-67
2023/01/23 04:28:17;;;;;;;0.00;0.00;;;1.30;99.90;;;;;;5012003;28;20178;-74
2023/01/23 04:30:43;;;;;;;0.00;0.00;;;1.30;99.90;;;;;;5011888;28;20244;-70
2023/01/23 04:33:08;;;;;;;0.00;0.00;;;1.20;99.90;;;;;;5012208;28;20677;-71
2023/01/23 04:35:35;;;;;;;0.10;0.10;;;1.20;99.90;;;;;;5011771;28;20552;-72
2023/01/23 04:38:00;;;;;;;0.10;0.10;;;1.20;99.90;;;;;;5011882;28;20673;-70
2023/01/23 04:40:26;;;;;;;0.00;0.00;;;1.20;99.90;;;;;;5010758;28;20179;-71
2023/01/23 04:42:52;;;;;;;0.10;0.10;;;1.20;99.90;;;;;;5000842;28;20284;-69
2023/01/23 04:45:17;;;;;;;0.08;0.08;;;1.20;99.90;;;;;;5012113;28;20179;-71
2023/01/23 04:47:43;;;;;;;0.00;0.00;;;1.20;99.90;;;;;;5011124;28;20182;-69
2023/01/23 04:50:09;;;;;;;0.00;0.00;;;1.30;99.90;;;;;;5012086;28;20186;-68
2023/01/23 04:52:34;;;;;;;0.00;0.00;;;1.30;99.90;;;;;;5012130;28;20205;-68
2023/01/23 04:55:00;;;;;;;0.00;0.00;;;1.20;99.90;;;;;;5010059;28;20209;-77
2023/01/23 04:57:25;;;;;;;0.00;0.00;;;1.20;99.90;;;;;;5011854;28;20197;-75
2023/01/23 04:59:51;;;;;;;0.00;0.00;;;1.20;99.90;;;;;;5002182;28;20171;-69
2023/01/23 05:02:16;;;;;;;0.00;0.00;;;1.20;99.90;;;;;;5009311;28;20186;-68
2023/01/23 05:04:42;;;;;;;0.00;0.00;;;1.20;99.90;;;;;;5011593;28;20195;-68
2023/01/23 05:07:11;;;;;;;0.00;0.00;;;1.20;99.90;;;;;;5008893;28;20194;-68
2023/01/23 05:09:37;;;;;;;0.00;0.00;;;1.20;99.90;;;;;;4985618;28;20183;-72
2023/01/23 05:12:03;;;;;;;0.30;0.30;;;1.20;99.90;;;;;;4994303;28;20269;-68
2023/01/23 05:14:29;;;;;;;0.20;0.20;;;1.20;99.90;;;;;;5003806;28;20175;-72
2023/01/23 05:16:55;;;;;;;0.00;0.00;;;1.20;99.90;;;;;;5011018;28;20257;-70
2023/01/23 05:19:20;;;;;;;0.00;0.00;;;1.20;99.90;;;;;;5011131;28;20552;-78
2023/01/23 05:21:46;;;;;;;0.00;0.00;;;1.20;99.90;;;;;;5011709;28;20185;-77
2023/01/23 05:24:12;;;;;;;0.00;0.00;;;1.20;99.90;;;;;;5012019;28;20623;-77
2023/01/23 05:26:37;;;;;;;0.00;0.00;;;1.20;99.90;;;;;;5011270;28;20189;-75
2023/01/23 05:29:03;;;;;;;0.00;0.00;;;1.20;99.90;;;;;;5011348;28;20638;-77
2023/01/23 05:31:29;;;;;;;0.00;0.00;;;1.20;99.90;;;;;;5011182;28;20270;-73
2023/01/23 05:33:54;;;;;;;0.13;0.13;;;1.90;99.90;;;;;;5010782;28;20195;-81
2023/01/23 05:36:20;;;;;;;0.13;0.13;;;2.50;99.90;;;;;;5010860;28;20221;-81
2023/01/23 05:38:45;;;;;;;0.20;0.20;;;2.60;99.90;;;;;;5011459;28;20237;-82
2023/01/23 05:41:11;;;;;;;0.10;0.10;;;2.50;99.90;;;;;;5011661;28;20532;-81
2023/01/23 05:43:36;;;;;;;0.10;0.10;;;2.30;99.90;;;;;;5011517;28;20175;-81
2023/01/23 05:46:02;;;;;;;0.00;0.00;;;2.20;99.90;;;;;;5011418;28;20179;-81
2023/01/23 05:48:28;;;;;;;0.00;0.00;;;2.00;99.90;;;;;;5011408;28;20206;-81
2023/01/23 05:50:53;;;;;;;0.10;0.10;;;1.90;99.90;;;;;;5013067;28;20178;-80
2023/01/23 05:53:19;;;;;;;0.00;0.00;;;1.80;99.90;;;;;;5015072;28;20697;-83
2023/01/23 05:55:44;;;;;;;0.00;0.00;;;1.70;99.90;;;;;;5014860;28;20561;-83
2023/01/23 05:58:10;;;;;;;0.00;0.00;;;1.60;99.90;;;;;;4997303;28;20546;-82
2023/01/23 06:00:37;;;;;;;0.10;0.10;;;1.50;99.90;;;;;;5015052;28;20170;-84
2023/01/23 06:03:02;;;;;;;0.10;0.10;;;1.50;99.90;;;;;;4997416;28;20194;-82
2023/01/23 06:05:28;;;;;;;0.00;0.00;;;1.40;99.90;;;;;;5014663;28;20191;-83
2023/01/23 06:07:54;;;;;;;0.00;0.00;;;1.40;99.90;;;;;;5014966;28;20178;-85
2023/01/23 06:10:19;;;;;;;0.00;0.00;;;1.40;99.90;;;;;;5015179;28;20178;-83
2023/01/23 06:12:45;;;;;;;0.20;0.10;;;1.30;99.90;;;;;;5014785;28;20293;-82
2023/01/23 06:15:11;;;;;;;0.70;0.65;;;1.30;99.90;;;;;;5014832;28;20178;-85
2023/01/23 06:17:36;;;;;;;0.00;0.00;;;1.30;99.90;;;;;;5015042;28;20171;-84
2023/01/23 06:20:03;;;;;;;0.15;0.10;;;1.20;99.90;;;;;;5014520;28;20181;-82
2023/01/23 06:22:29;;;;;;;0.08;0.03;;;1.20;99.90;;;;;;5014700;28;20262;-83
2023/01/23 06:24:54;;;;;;;0.17;0.17;;;1.20;99.90;;;;;;5014683;28;20203;-83
2023/01/23 06:27:20;;;;;;;0.35;0.20;;;1.20;99.90;;;;;;5014644;28;20691;-82
2023/01/23 06:29:45;;;;;;;0.00;0.00;;;1.20;99.90;;;;;;5014636;28;20181;-82
2023/01/23 06:32:11;;;;;;;0.00;0.00;;;1.10;99.90;;;;;;5014545;28;20179;-85
2023/01/23 06:34:37;;;;;;;0.00;0.00;;;1.20;99.90;;;;;;5014631;28;20179;-84
2023/01/23 06:37:03;;;;;;;0.00;0.00;;;1.10;99.90;;;;;;5014438;28;20207;-84
2023/01/23 06:39:33;;;;;;;0.00;0.00;;;1.10;99.90;;;;;;5014391;28;20206;-81
2023/01/23 06:41:58;;;;;;;0.00;0.00;;;1.20;99.90;;;;;;5014222;28;20742;-83
2023/01/23 06:44:24;;;;;;;0.00;0.00;;;1.20;99.90;;;;;;4996639;28;20342;-83
2023/01/23 06:46:51;;;;;;;0.00;0.00;;;1.20;99.90;;;;;;5014093;28;20186;-82
2023/01/23 06:49:17;;;;;;;0.00;0.00;;;1.20;99.90;;;;;;5014207;28;20474;-83
2023/01/23 06:51:42;;;;;;;0.10;0.10;;;1.10;99.90;;;;;;4996477;28;20201;-84
2023/01/23 06:54:08;;;;;;;0.20;0.20;;;1.10;99.90;;;;;;5013891;28;20187;-81
2023/01/23 06:56:34;;;;;;;0.20;0.20;;;1.10;99.90;;;;;;5013848;28;20215;-84
2023/01/23 06:58:59;;;;;;;0.00;0.00;;;1.10;99.90;;;;;;5013932;28;20175;-84
2023/01/23 07:01:25;;;;;;;0.00;0.00;;;1.10;99.90;;;;;;5013562;28;20199;-81
2023/01/23 07:03:50;;;;;;;0.43;0.40;;;1.10;99.90;;;;;;5013135;28;20185;-81
2023/01/23 07:06:16;;;;;;;0.00;0.00;;;1.10;99.90;;;;;;4992796;28;20536;-83
2023/01/23 07:08:42;;;;;;;0.00;0.00;;;1.10;99.90;;;;;;4994082;28;20218;-80
2023/01/23 07:11:08;;;;;;;0.00;0.00;;;1.10;99.90;;;;;;4993991;28;20249;-83
2023/01/23 07:13:34;;;;;;;0.23;0.23;;;1.00;99.90;;;;;;5008426;28;20605;-83
2023/01/23 07:16:00;;;;;;;0.53;0.53;;;1.00;99.90;;;;;;5013267;28;20313;-83
2023/01/23 07:18:27;;;;;;;0.00;0.00;;;1.00;99.90;;;;;;5013550;28;20541;-81
2023/01/23 07:20:53;;;;;;;0.00;0.00;;;1.00;99.90;;;;;;5014000;28;20254;-83
2023/01/23 07:23:19;;;;;;;0.00;0.00;;;1.00;99.90;;;;;;5013504;28;20610;-82
2023/01/23 07:25:44;;;;;;;0.20;0.20;;;1.00;99.90;;;;;;5013406;28;20266;-85
2023/01/23 07:28:10;;;;;;;0.00;0.00;;;1.00;99.90;;;;;;5013380;28;20181;-82
2023/01/23 07:30:35;;;;;;;0.00;0.00;;;1.00;99.90;;;;;;5013372;28;20183;-83
2023/01/23 07:33:01;;;;;;;0.00;0.00;;;1.00;99.90;;;;;;5013303;28;20221;-82
2023/01/23 07:35:27;;;;;;;0.00;0.00;;;1.00;99.90;;;;;;5013131;28;20210;-82
2023/01/23 07:37:52;;;;;;;0.63;0.63;;;1.10;99.90;;;;;;5013246;28;20178;-83
2023/01/23 07:40:18;;;;;;;0.00;0.00;;;1.10;99.90;;;;;;5013096;28;20179;-82
2023/01/23 07:42:45;;;;;;;0.13;0.13;;;1.10;99.90;;;;;;5013102;28;20232;-82
2023/01/23 07:45:11;;;;;;;0.00;0.00;;;1.10;99.90;;;;;;5013158;28;20242;-83
2023/01/23 07:47:38;;;;;;;0.00;0.00;;;1.10;99.90;;;;;;5013026;28;20262;-81
2023/01/23 07:50:05;;;;;;;0.20;0.20;;;1.10;99.90;;;;;;5012965;28;20186;-82
2023/01/23 07:52:31;;;;;;;0.00;0.00;;;1.20;99.90;;;;;;5013064;28;20175;-82
2023/01/23 07:54:56;;;;;;;0.73;0.73;;;1.10;99.90;;;;;;4995347;28;20181;-84
2023/01/23 07:57:21;;;;;;;0.10;0.10;;;1.10;99.90;;;;;;5012849;28;20553;-82
2023/01/23 07:59:47;;;;;;;0.30;0.30;;;1.20;99.90;;;;;;5012636;28;20535;-81
2023/01/23 08:02:13;;;;;;;0.00;0.00;;;1.20;99.90;;;;;;5012840;28;20183;-81
2023/01/23 08:04:38;;;;;;;0.00;0.00;;;1.20;99.90;;;;;;5012698;28;20254;-81
2023/01/23 08:07:04;;;;;;;0.00;0.00;;;1.20;99.90;;;;;;5012735;28;20175;-81
2023/01/23 08:09:29;;;;;;;0.00;0.00;;;1.20;99.90;;;;;;5012609;28;20642;-81
2023/01/23 08:11:55;;;;;;;0.00;0.00;;;1.20;99.90;;;;;;4994909;28;20187;-80
2023/01/23 08:14:21;;;;;;;0.10;0.10;;;1.30;99.90;;;;;;5012484;28;20237;-81
2023/01/23 08:16:50;;;;;;;0.00;0.00;;;1.30;99.90;;;;;;4994531;28;20230;-80
2023/01/23 08:19:17;;;;;;;0.00;0.00;;;1.30;99.90;;;;;;5012431;28;20171;-82
2023/01/23 08:21:43;;;;;;;0.00;0.00;;;1.30;99.90;;;;;;5012394;28;20183;-79
2023/01/23 08:24:10;;;;;;;0.00;0.00;;;1.30;99.90;;;;;;5012303;28;20530;-80
2023/01/23 08:26:35;;;;;;;0.20;0.20;;;1.30;99.90;;;;;;5012550;28;20240;-80
2023/01/23 08:29:01;;;;;;;0.10;0.10;;;1.30;99.90;;;;;;5012255;28;20182;-79
2023/01/23 08:31:27;;;;;;;0.00;0.00;;;1.40;99.90;;;;;;5012365;28;20187;-80
2023/01/23 08:33:52;;;;;;;0.30;0.30;;;1.40;99.90;;;;;;5012298;28;20179;-80
2023/01/23 08:36:18;;;;;;;0.10;0.10;;;1.40;99.90;;;;;;5012265;28;20218;-80
2023/01/23 08:38:43;;;;;;;0.00;0.00;;;1.40;99.90;;;;;;5012207;28;20182;-80
2023/01/23 08:41:10;;;;;;;0.45;0.45;;;1.40;99.90;;;;;;5012259;28;20672;-80
2023/01/23 08:43:37;;;;;;;0.22;0.22;;;1.40;99.90;;;;;;5012226;28;20218;-80
2023/01/23 08:46:02;;;;;;;0.15;0.15;;;1.40;99.90;;;;;;5012252;28;20269;-80
2023/01/23 08:48:28;;;;;;;0.10;0.10;;;1.40;99.90;;;;;;5012202;28;20265;-77
2023/01/23 08:51:11;;;;;;;0.00;0.00;;;1.50;99.90;;;;;;5012140;28;20185;-80
2023/01/23 08:53:37;;;;;;;0.00;0.00;;;1.50;99.90;;;;;;5012426;28;20174;-79
2023/01/23 08:56:09;;;;;;;0.00;0.00;;;1.50;99.90;;;;;;5012024;28;20572;-79
2023/01/23 08:58:34;;;;;;;0.00;0.00;;;1.50;99.90;;;;;;5012178;28;20198;-79
2023/01/23 09:01:00;;;;;;;0.00;0.00;;;1.40;99.90;;;;;;5011932;28;20638;-80
2023/01/23 09:03:27;;;;;;;0.00;0.00;;;1.50;99.90;;;;;;5012021;28;20179;-79
2023/01/23 09:05:52;;;;;;;0.00;0.00;;;1.50;99.90;;;;;;5011907;28;20178;-79
2023/01/23 09:08:18;;;;;;;0.17;0.17;;;1.50;99.90;;;;;;5011978;28;20194;-79
2023/01/23 09:10:44;;;;;;;0.10;0.10;;;1.50;99.90;;;;;;4994318;28;20179;-79
2023/01/23 09:13:09;;;;;;;0.65;0.65;;;1.60;99.90;;;;;;5011766;28;20658;-79
2023/01/23 09:15:39;;;;;;;0.10;0.10;;;1.60;99.90;;;;;;5011794;28;20262;-78
2023/01/23 09:18:05;;;;;;;0.00;0.00;;;1.50;99.90;;;;;;5011934;28;20183;-80
2023/01/23 09:20:31;;;;;;;0.10;0.10;;;1.60;99.90;;;;;;5011846;28;20175;-80
2023/01/23 09:22:56;;;;;;;0.00;0.00;;;1.60;99.90;;;;;;5011910;28;20198;-80
2023/01/23 09:25:22;;;;;;;0.10;0.10;;;1.60;99.90;;;;;;5013137;28;20175;-80
2023/01/23 09:27:47;;;;;;;0.00;0.00;;;1.60;99.90;;;;;;4998221;28;20661;-80
2023/01/23 09:30:13;;;;;;;0.00;0.00;;;1.70;99.90;;;;;;5016162;28;20258;-80
2023/01/23 09:32:39;;;;;;;0.00;0.00;;;1.70;99.90;;;;;;5016000;28;20209;-79
2023/01/23 09:35:05;;;;;;;0.20;0.15;;;1.70;99.90;;;;;;5015555;28;20217;-82
2023/01/23 09:40:42;;;;;;;0.00;0.00;;;1.80;99.90;;;;;;4992904;28;20229;-81
2023/01/23 09:43:17;;;;;;;0.17;0.17;;;1.80;99.90;;;;;;4998078;28;20253;-80
2023/01/23 09:45:50;;;;;;;0.00;0.00;;;1.80;99.90;;;;;;4997833;28;20181;-79
2023/01/23 09:48:41;;;;;;;0.00;0.00;;;1.80;99.90;;;;;;5015489;28;20194;-80
2023/01/23 09:51:21;;;;;;;0.00;0.00;;;1.90;99.90;;;;;;5015118;28;20205;-79
2023/01/23 09:53:46;;;;;;;0.05;0.05;;;1.90;99.90;;;;;;5015069;28;20236;-79
2023/01/23 09:56:25;;;;;;;0.00;0.00;;;1.90;99.90;;;;;;4981351;28;20234;-79
2023/01/23 09:59:34;;;;;;;2.75;0.32;;;1.90;99.90;;;;;;5015093;28;20528;-78
2023/01/23 10:02:00;;;;;;;0.00;0.00;;;1.80;99.90;;;;;;5015351;28;20539;-78
2023/01/23 10:04:26;;;;;;;0.00;0.00;;;1.80;99.90;;;;;;4997534;28;20186;-79
2023/01/23 10:07:04;;;;;;;0.20;0.20;;;1.80;99.90;;;;;;5015145;28;20638;-79
2023/01/23 10:09:42;;;;;;;0.00;0.00;;;1.90;99.90;;;;;;5014765;28;20538;-79
2023/01/23 10:12:22;;;;;;;0.00;0.00;;;1.90;99.90;;;;;;5014657;28;20194;-79
2023/01/23 10:15:01;;;;;;;0.55;0.55;;;1.90;99.90;;;;;;5014609;28;20209;-79
2023/01/23 10:17:40;;;;;;;0.13;0.13;;;1.90;99.90;;;;;;5014540;28;20276;-80
2023/01/23 10:20:27;;;;;;;0.00;0.00;;;1.90;99.90;;;;;;5014752;28;20240;-80
2023/01/23 10:23:01;;;;;;;0.20;0.20;;;2.00;99.90;;;;;;4997767;28;20186;-81
2023/01/23 10:25:31;;;;;;;0.00;0.00;;;2.00;99.90;;;;;;5014650;28;20174;-80
2023/01/23 10:28:13;;;;;;;0.00;0.00;;;2.00;99.90;;;;;;5014611;28;20182;-80
2023/01/23 10:30:40;;;;;;;0.00;0.00;;;1.90;99.90;;;;;;5014858;28;20186;-79
2023/01/23 10:33:13;;;;;;;0.00;0.00;;;1.90;99.90;;;;;;5014595;28;20210;-80
2023/01/23 10:35:50;;;;;;;0.00;0.00;;;2.00;99.90;;;;;;5014699;28;20724;-77
2023/01/23 10:38:38;;;;;;;0.00;0.00;;;2.00;99.90;;;;;;5013688;28;20179;-80
2023/01/23 10:41:13;;;;;;;1.15;0.65;;;1.90;99.90;;;;;;5014826;28;20182;-80
2023/01/23 10:43:40;;;;;;;0.20;0.20;;;1.90;99.90;;;;;;5014672;28;20189;-80
2023/01/23 10:46:14;;;;;;;0.00;0.00;;;1.90;99.90;;;;;;5014322;28;20185;-80
2023/01/23 10:48:40;;;;;;;0.00;0.00;;;1.90;99.90;;;;;;5014575;28;20187;-80
2023/01/23 10:51:26;;;;;;;0.30;0.30;;;1.90;99.90;;;;;;5014535;28;20198;-80
2023/01/23 10:54:05;;;;;;;0.00;0.00;;;1.90;99.90;;;;;;5014501;28;20171;-80
2023/01/23 10:56:33;;;;;;;0.00;0.00;;;2.00;99.90;;;;;;5014602;28;20206;-81
2023/01/23 10:59:04;;;;;;;0.15;0.15;;;2.00;99.90;;;;;;5014390;28;20241;-81
2023/01/23 11:01:32;;;;;;;0.00;0.00;;;1.90;99.90;;;;;;5014337;28;20182;-82
2023/01/23 11:04:18;;;;;;;0.43;0.43;;;2.00;99.90;;;;;;5013928;28;20202;-81
2023/01/23 11:07:05;;;;;;;0.00;0.00;;;2.00;99.90;;;;;;5013872;28;20189;-81
2023/01/23 11:09:31;;;;;;;0.52;0.52;;;2.00;99.90;;;;;;5014058;28;20186;-81
2023/01/23 11:12:01;;;;;;;0.00;0.00;;;2.00;99.90;;;;;;4996491;28;20671;-82
2023/01/23 11:14:27;;;;;;;0.00;0.00;;;2.10;99.90;;;;;;5013629;28;20701;-82
2023/01/23 11:17:12;;;;;;;0.00;0.00;;;2.10;99.90;;;;;;5013667;28;20325;-82
2023/01/23 11:19:38;;;;;;;0.00;0.00;;;2.20;99.90;;;;;;4996669;28;20599;-82
2023/01/23 11:22:21;;;;;;;0.10;0.10;;;2.20;99.90;;;;;;4996248;28;20281;-81
2023/01/23 11:24:47;;;;;;;0.15;0.15;;;2.20;99.90;;;;;;5013820;28;20568;-82
2023/01/23 11:27:19;;;;;;;0.00;0.00;;;2.20;99.90;;;;;;5014132;28;20246;-81
2023/01/23 11:29:50;;;;;;;0.00;0.00;;;2.20;99.90;;;;;;5014424;28;20179;-80
2023/01/23 11:32:16;;;;;;;0.30;0.30;;;2.30;99.90;;;;;;5014092;28;20202;-79
2023/01/23 11:34:56;;;;;;;0.00;0.00;;;2.30;99.90;;;;;;5013985;28;20536;-80
2023/01/23 11:37:31;;;;;;;0.00;0.00;;;2.30;99.90;;;;;;4996482;28;20301;-79
2023/01/23 11:40:06;;;;;;;0.00;0.00;;;2.40;99.90;;;;;;5013652;28;20166;-79
2023/01/23 11:42:34;;;;;;;0.10;0.10;;;2.50;99.90;;;;;;5013408;28;20182;-79
2023/01/23 11:45:00;;;;;;;0.38;0.38;;;2.50;99.90;;;;;;5013216;28;20557;-80
2023/01/23 11:48:10;;;;;;;0.00;0.00;;;2.50;99.90;;;;;;5013424;28;20182;-81
2023/01/23 11:50:52;;;;;;;0.00;0.00;;;2.50;99.90;;;;;;5012832;28;20194;-80
2023/01/23 11:53:50;;;;;;;0.00;0.00;;;2.50;99.90;;;;;;5013417;28;20263;-81
2023/01/23 11:56:49;;;;;;;0.63;0.52;;;2.50;99.90;;;;;;5012973;28;20246;-81
2023/01/23 11:59:40;;;;;;;0.10;0.10;;;2.50;99.90;;;;;;5013046;28;20206;-78
2023/01/23 12:02:11;;;;;;;0.00;0.00;;;2.50;99.90;;;;;;5012914;28;20232;-78
2023/01/23 12:05:06;;;;;;;0.00;0.00;;;2.50;99.90;;;;;;5012705;28;20171;-79
2023/01/23 12:08:05;;;;;;;0.00;0.00;;;2.50;99.90;;;;;;5012769;28;20185;-78
2023/01/23 12:10:55;;;;;;;0.00;0.00;;;2.50;99.90;;;;;;5012687;28;20225;-78
2023/01/23 12:13:35;;;;;;;0.00;0.00;;;2.50;99.90;;;;;;5012551;28;20182;-78
2023/01/23 12:16:44;;;;;;;0.00;0.00;;;2.50;99.90;;;;;;5012240;28;20226;-78
2023/01/23 12:19:23;;;;;;;0.00;0.00;;;2.50;99.90;;;;;;5012283;28;20229;-78
2023/01/23 12:22:12;;;;;;;0.63;0.52;;;2.50;99.90;;;;;;5012303;28;20580;-79
2023/01/23 12:25:01;;;;;;;0.10;0.10;;;2.60;99.90;;;;;;5011883;28;20534;-79
2023/01/23 12:27:29;;;;;;;0.08;0.05;;;2.60;99.90;;;;;;5012432;28;20304;-79
2023/01/23 12:30:11;;;;;;;0.10;0.10;;;2.70;99.90;;;;;;5012373;28;20214;-80
2023/01/23 12:32:47;;;;;;;0.22;0.22;;;2.70;99.90;;;;;;5012581;28;20184;-81
2023/01/23 12:35:41;;;;;;;0.00;0.00;;;2.70;99.90;;;;;;5012388;28;20174;-80
2023/01/23 12:38:19;;;;;;;0.00;0.00;;;2.70;99.90;;;;;;4994619;28;20281;-80
2023/01/23 12:41:23;;;;;;;0.00;0.00;;;2.70;99.90;;;;;;5012224;28;20254;-79
2023/01/23 12:44:03;;;;;;;0.10;0.10;;;2.70;99.90;;;;;;4988915;28;20264;-79
2023/01/23 12:46:38;;;;;;;0.00;0.00;;;2.60;99.90;;;;;;5012073;28;20185;-79
2023/01/23 12:49:21;;;;;;;0.00;0.00;;;2.70;99.90;;;;;;5012176;28;20167;-79
2023/01/23 12:52:01;;;;;;;0.08;0.08;;;2.60;99.90;;;;;;5012171;28;20232;-79
2023/01/23 12:54:35;;;;;;;0.00;0.00;;;2.60;99.90;;;;;;5011992;28;20189;-80
2023/01/23 12:57:04;;;;;;;0.00;0.00;;;2.70;99.90;;;;;;5012122;28;20220;-79
2023/01/23 13:00:05;;;;;;;0.00;0.00;;;2.60;99.90;;;;;;5011981;28;20217;-80
2023/01/23 13:02:43;;;;;;;0.00;0.00;;;2.60;99.90;;;;;;4998660;28;20240;-80
2023/01/23 13:05:32;;;;;;;0.17;0.17;;;2.60;99.90;;;;;;5015712;28;20637;-79
2023/01/23 13:08:16;;;;;;;0.00;0.00;;;2.60;99.90;;;;;;5015984;28;20179;-81
2023/01/23 13:13:55;;;;;;;0.00;0.00;;;2.60;99.90;;;;;;5015810;28;20229;-78
2023/01/23 13:16:28;;;;;;;0.43;0.32;;;2.60;99.90;;;;;;5015548;28;20234;-79
2023/01/23 13:22:21;;;;;;;0.00;0.00;;;2.60;99.90;;;;;;5015922;28;20190;-78
2023/01/23 13:25:11;;;;;;;0.00;0.00;;;2.70;99.90;;;;;;5015102;28;20834;-78
2023/01/23 13:27:48;;;;;;;0.17;0.17;;;2.70;99.90;;;;;;5014998;28;20214;-79
2023/01/23 13:30:23;;;;;;;0.00;0.00;;;2.70;99.90;;;;;;5015413;28;20182;-75